Fort Meade, MD

2:04 AM EST on November 24, 2014 (GMT -0500)
Seven Oaks | Change Station
CLOSE
Current Station
Personal Weather Station
Location: Odenton, MD
Elevation: 154 ft
Nearby Weather Stations

Elev 154 ft 39.11 °N, 76.71 °W | Updated 2 minutes ago

Rain
Rain
59.0 °F
Feels Like 59.0 °F
N
4.5
Wind Variable Wind from SW
Gusts 8.3 mph

Today
High -- | Low -- °F
--% Chance of Precip.
Yesterday
High -- | Low -- °F
Precip. -- in
6:59 AM 4:47 PM
Waxing Crescent, 4% visible
Pressure 29.71 in
Visibility 10.0 miles
Clouds Mostly Cloudy 600 ft
Overcast 1200 ft
Dew Point 59 °F
Humidity 99%
Rainfall 0.19 in
Snow Depth Not available.
UV 0 out of 12
Pollen .10 out of 12
Air Quality Not available.
Flu Activity Not available.
METAR KFME 240642Z AUTO 14011G18KT 10SM BKN006 OVC012 13/13 A2971 RMK AO1

More Conditions Fewer Conditions

Pressure 29.71 in
Visibility 10.0 miles
Clouds Mostly Cloudy 600 ft
Overcast 1200 ft
Dew Point 59 °F
Humidity 99%
Rainfall 0.19 in
Snow Depth Not available.
UV 0 out of 12
Pollen .10 out of 12
Air Quality Not available.
Flu Activity Not available.
METAR KFME 240642Z AUTO 14011G18KT 10SM BKN006 OVC012 13/13 A2971 RMK AO1

More Conditions Fewer Conditions

10-Day Weather Forecast

Almanac

Astronomy

Nov. 24, 2014 Rise Set
Actual Time
Civil Twilight
Nautical Twilight
Astronomical Twilight
Moon
Length of Visible Light
Length of Day
Tomorrow will be .
, % of the Moon is Illuminated

Today's Extremes

State Highs State Lows

Community

WunderPhotos

Upload Photos

1,773,295 photos uploaded!

WunderBlogs® & News

Nearby

Air Quality

  Air Quality AQ Index Pollutant
Not available.

Snow Depth

Station Depth Elevation

Earthquake Activity

City Distance Mag. Time & Date
Minimum magnitude displayed is 2.5.

Coastal Water Temperatures

Place Temperature

Nearby Weather Stations